Time;durP1;ratioP1;P1;durP2;ratioP2;P2;SDS_P1;SDS_P2;PMS_P1;PMS_P2;Temp;Humidity;BMP_temperature;BMP_pressure;BME280_temperature;BME280_humidity;BME280_pressure;Samples;Min_cycle;Max_cycle;Signal;HPM_P1;HPM_P2
2020/12/05 00:00:29;;;;;;;0.80;0.80;;;6.30;99.90;;;;;;5060278;28;20156;-80
2020/12/05 00:02:55;;;;;;;2.33;1.27;;;6.30;99.90;;;;;;5056887;28;20170;-80
2020/12/05 00:05:20;;;;;;;0.20;0.20;;;6.30;99.90;;;;;;5076646;28;20168;-79
2020/12/05 00:07:46;;;;;;;0.37;0.37;;;5.80;99.90;;;;;;5074606;28;20174;-81
2020/12/05 00:10:11;;;;;;;1.20;1.20;;;5.60;99.90;;;;;;5056691;28;20189;-81
2020/12/05 00:12:37;;;;;;;0.60;0.60;;;5.50;99.90;;;;;;5056705;28;20566;-79
2020/12/05 00:15:04;;;;;;;1.23;1.13;;;5.60;99.90;;;;;;5056499;28;20244;-79
2020/12/05 00:17:31;;;;;;;0.83;0.50;;;5.70;99.90;;;;;;5056586;28;20175;-79
2020/12/05 00:19:57;;;;;;;0.60;0.60;;;5.80;99.90;;;;;;5074403;28;20210;-79
2020/12/05 00:22:23;;;;;;;0.73;0.73;;;5.90;99.90;;;;;;5056541;28;20170;-79
2020/12/05 00:24:48;;;;;;;4.80;2.53;;;5.70;99.90;;;;;;5074315;28;20183;-79
2020/12/05 00:27:19;;;;;;;0.73;0.73;;;5.40;99.90;;;;;;5056418;28;20175;-79
2020/12/05 00:29:45;;;;;;;0.50;0.50;;;5.30;99.90;;;;;;5074225;28;20186;-79
2020/12/05 00:32:10;;;;;;;1.03;0.77;;;5.50;99.90;;;;;;5056229;28;20232;-79
2020/12/05 00:34:36;;;;;;;0.70;0.70;;;5.60;99.90;;;;;;5074615;28;20195;-79
2020/12/05 00:37:02;;;;;;;0.80;0.80;;;5.60;99.90;;;;;;5056063;28;20170;-79
2020/12/05 00:39:27;;;;;;;0.87;0.87;;;5.70;99.90;;;;;;5056059;28;20260;-79
2020/12/05 00:41:53;;;;;;;1.37;0.77;;;5.80;99.90;;;;;;5074585;28;20178;-79
2020/12/05 00:44:18;;;;;;;0.83;0.83;;;5.80;99.90;;;;;;5073932;28;20182;-79
2020/12/05 00:46:44;;;;;;;1.33;0.77;;;5.80;99.90;;;;;;5073859;28;20171;-79
2020/12/05 00:49:09;;;;;;;1.17;1.17;;;5.80;99.90;;;;;;5073814;28;20694;-79
2020/12/05 00:51:35;;;;;;;1.77;1.67;;;5.70;99.90;;;;;;5055938;28;20570;-79
2020/12/05 00:54:01;;;;;;;0.63;0.63;;;5.70;99.90;;;;;;5055836;28;20275;-79
2020/12/05 00:56:26;;;;;;;1.23;0.80;;;5.60;99.90;;;;;;5074019;28;20508;-79
2020/12/05 00:58:52;;;;;;;1.83;1.73;;;5.50;99.90;;;;;;5073688;28;20199;-79
2020/12/05 01:01:17;;;;;;;1.03;0.93;;;5.60;99.90;;;;;;5055768;28;20198;-79
2020/12/05 01:03:43;;;;;;;1.20;1.00;;;5.60;99.90;;;;;;5056012;28;20173;-79
2020/12/05 01:06:15;;;;;;;1.17;1.03;;;5.70;99.90;;;;;;5055711;28;20179;-79
2020/12/05 01:08:44;;;;;;;0.97;0.97;;;5.90;99.90;;;;;;5073699;28;20237;-79
2020/12/05 01:11:12;;;;;;;1.07;1.07;;;5.90;99.90;;;;;;5073568;28;20288;-79
2020/12/05 01:13:37;;;;;;;1.40;1.37;;;5.90;99.90;;;;;;5073511;28;20191;-79
2020/12/05 01:16:03;;;;;;;0.87;0.87;;;5.80;99.90;;;;;;5055644;28;20221;-79
2020/12/05 01:18:29;;;;;;;1.43;1.30;;;5.90;99.90;;;;;;5073415;28;20261;-79
2020/12/05 01:20:54;;;;;;;0.83;0.83;;;5.90;99.90;;;;;;5055641;28;20171;-79
2020/12/05 01:23:19;;;;;;;1.77;1.17;;;6.00;99.90;;;;;;5073958;28;20251;-79
2020/12/05 01:25:45;;;;;;;0.93;0.77;;;6.00;99.90;;;;;;5073478;28;20627;-79
2020/12/05 01:28:11;;;;;;;0.80;0.80;;;6.20;99.90;;;;;;5055451;28;20191;-79
2020/12/05 01:30:36;;;;;;;3.03;1.20;;;6.20;99.90;;;;;;5073384;28;20174;-79
2020/12/05 01:33:02;;;;;;;1.90;1.03;;;6.20;99.90;;;;;;5073263;28;20170;-79
2020/12/05 01:35:27;;;;;;;0.70;0.70;;;6.30;99.90;;;;;;5073439;28;20163;-79
2020/12/05 01:37:53;;;;;;;1.90;0.67;;;6.30;99.90;;;;;;5055219;28;20642;-78
2020/12/05 01:40:18;;;;;;;0.67;0.67;;;6.30;99.90;;;;;;5073969;28;20175;-79
2020/12/05 01:42:45;;;;;;;0.73;0.73;;;6.30;99.90;;;;;;5073582;28;20162;-79
2020/12/05 01:45:10;;;;;;;0.83;0.83;;;6.30;99.90;;;;;;5073328;28;20634;-79
2020/12/05 01:47:36;;;;;;;0.60;0.60;;;6.20;99.90;;;;;;5073466;28;20175;-79
2020/12/05 01:50:02;;;;;;;0.57;0.57;;;6.20;99.90;;;;;;5057063;28;20190;-79
2020/12/05 01:52:28;;;;;;;1.87;1.10;;;6.20;99.90;;;;;;5077583;28;20250;-79
2020/12/05 01:54:53;;;;;;;0.50;0.50;;;6.30;99.90;;;;;;5077115;28;20270;-79
2020/12/05 01:57:21;;;;;;;1.10;1.10;;;6.30;99.90;;;;;;5059172;28;20175;-79
2020/12/05 01:59:46;;;;;;;0.60;0.50;;;6.20;99.90;;;;;;5077052;28;20293;-79
2020/12/05 02:02:12;;;;;;;1.23;1.13;;;6.30;99.90;;;;;;5077382;28;20198;-79
2020/12/05 02:04:50;;;;;;;1.23;1.13;;;6.30;99.90;;;;;;5059131;28;20531;-79
2020/12/05 02:07:30;;;;;;;0.63;0.63;;;6.30;99.90;;;;;;5077004;28;20155;-79
2020/12/05 02:09:57;;;;;;;2.97;0.60;;;6.40;99.90;;;;;;5076902;28;20740;-79
2020/12/05 02:12:41;;;;;;;1.53;1.23;;;6.40;99.90;;;;;;5058935;28;20643;-79
2020/12/05 02:15:11;;;;;;;1.87;1.40;;;6.40;99.90;;;;;;5077535;28;20511;-79
2020/12/05 02:17:43;;;;;;;1.17;1.17;;;6.40;99.90;;;;;;5058858;28;20194;-79
2020/12/05 02:20:11;;;;;;;1.00;0.93;;;6.40;99.90;;;;;;5058764;28;20186;-79
2020/12/05 02:22:43;;;;;;;0.83;0.83;;;6.40;99.90;;;;;;5058817;28;20171;-79
2020/12/05 02:25:11;;;;;;;3.10;1.33;;;6.40;99.90;;;;;;5058782;28;20190;-78
2020/12/05 02:27:37;;;;;;;0.67;0.67;;;6.40;99.90;;;;;;5058715;28;20182;-79
2020/12/05 02:30:04;;;;;;;0.30;0.20;;;6.40;99.90;;;;;;5058706;28;20199;-79
2020/12/05 02:32:29;;;;;;;0.40;0.40;;;6.40;99.90;;;;;;5076609;28;20212;-79
2020/12/05 02:34:55;;;;;;;0.87;0.87;;;6.40;99.90;;;;;;5076720;28;20186;-79
2020/12/05 02:37:27;;;;;;;0.50;0.50;;;6.40;99.90;;;;;;5058561;28;20206;-79
2020/12/05 02:39:55;;;;;;;0.50;0.50;;;6.30;99.90;;;;;;5058431;28;20193;-79
2020/12/05 02:42:21;;;;;;;1.80;0.90;;;6.30;99.90;;;;;;5076610;28;20173;-79
2020/12/05 02:44:52;;;;;;;1.30;0.77;;;6.20;99.90;;;;;;5058437;28;20663;-79
2020/12/05 02:47:19;;;;;;;0.73;0.73;;;6.20;99.90;;;;;;5076314;28;20170;-79
2020/12/05 02:49:46;;;;;;;1.07;1.07;;;6.00;99.90;;;;;;5076188;28;20243;-79
2020/12/05 02:52:12;;;;;;;0.43;0.43;;;6.10;99.90;;;;;;5076157;28;20162;-79
2020/12/05 02:54:38;;;;;;;0.70;0.70;;;6.00;99.90;;;;;;5076023;28;20588;-79
2020/12/05 02:57:03;;;;;;;1.17;1.17;;;5.80;99.90;;;;;;5058186;28;20163;-79
2020/12/05 02:59:30;;;;;;;0.40;0.37;;;5.80;99.90;;;;;;5076003;28;20682;-79
2020/12/05 03:01:56;;;;;;;1.00;1.00;;;5.90;99.90;;;;;;5057892;28;20507;-79
2020/12/05 03:04:22;;;;;;;1.23;0.87;;;6.00;99.90;;;;;;5076120;28;20688;-79
2020/12/05 03:06:48;;;;;;;0.37;0.37;;;6.10;99.90;;;;;;5076529;28;20174;-79
2020/12/05 03:09:14;;;;;;;1.13;1.13;;;6.20;99.90;;;;;;5075837;28;20187;-79
2020/12/05 03:11:40;;;;;;;0.47;0.47;;;6.20;99.90;;;;;;5075820;28;20163;-79
2020/12/05 03:14:06;;;;;;;0.30;0.30;;;6.30;99.90;;;;;;5057804;28;20379;-79
2020/12/05 03:16:32;;;;;;;1.23;1.13;;;6.30;99.90;;;;;;5075817;28;20166;-78
2020/12/05 03:18:57;;;;;;;1.40;1.30;;;6.40;99.90;;;;;;5076031;28;20665;-79
2020/12/05 03:21:23;;;;;;;0.60;0.60;;;6.30;99.90;;;;;;5076009;28;20166;-78
2020/12/05 03:23:48;;;;;;;1.50;1.27;;;6.30;99.90;;;;;;5075728;28;20194;-78
2020/12/05 03:26:14;;;;;;;2.10;1.07;;;6.30;99.90;;;;;;5075706;28;20172;-78
2020/12/05 03:28:41;;;;;;;1.43;1.33;;;6.30;99.90;;;;;;5057623;28;20265;-78
2020/12/05 03:31:08;;;;;;;2.10;1.73;;;6.30;99.90;;;;;;5057617;28;20178;-78
2020/12/05 03:33:36;;;;;;;0.77;0.77;;;6.30;99.90;;;;;;5075497;28;20308;-78
2020/12/05 03:36:02;;;;;;;0.50;0.50;;;6.40;99.90;;;;;;5057676;28;20173;-78
2020/12/05 03:38:28;;;;;;;0.37;0.37;;;6.50;99.90;;;;;;5057519;28;20195;-78
2020/12/05 03:40:53;;;;;;;0.73;0.73;;;6.50;99.90;;;;;;5075458;28;20163;-78
2020/12/05 03:43:19;;;;;;;0.50;0.50;;;6.50;99.90;;;;;;5057529;28;20163;-78
2020/12/05 03:45:44;;;;;;;1.77;1.67;;;6.60;99.90;;;;;;5075337;28;20232;-78
2020/12/05 03:48:12;;;;;;;0.70;0.53;;;6.60;99.90;;;;;;5075246;28;20187;-78
2020/12/05 03:50:39;;;;;;;1.40;1.03;;;6.70;99.90;;;;;;5057277;28;20163;-78
2020/12/05 03:53:04;;;;;;;0.60;0.60;;;6.80;99.90;;;;;;5057278;28;20167;-78
2020/12/05 03:55:30;;;;;;;2.37;2.10;;;6.70;99.90;;;;;;5075137;28;20687;-78
2020/12/05 03:57:55;;;;;;;0.40;0.40;;;6.60;99.90;;;;;;5057004;28;20178;-78
2020/12/05 04:00:21;;;;;;;1.37;1.23;;;6.60;99.90;;;;;;5075089;28;20155;-78
2020/12/05 04:02:46;;;;;;;0.67;0.67;;;6.60;99.90;;;;;;5075116;28;20576;-78
2020/12/05 04:05:12;;;;;;;1.00;0.90;;;6.60;99.90;;;;;;5056914;28;20527;-78
2020/12/05 04:07:37;;;;;;;3.63;0.97;;;6.70;99.90;;;;;;5056975;28;20167;-78
2020/12/05 04:10:04;;;;;;;1.33;0.97;;;6.70;99.90;;;;;;5074792;28;20187;-78
2020/12/05 04:12:29;;;;;;;0.90;0.90;;;6.70;99.90;;;;;;5056353;28;20164;-78
2020/12/05 04:14:55;;;;;;;0.70;0.63;;;6.70;99.90;;;;;;5056650;28;20720;-78
2020/12/05 04:17:20;;;;;;;1.03;1.03;;;6.70;99.90;;;;;;5074608;28;20194;-78
2020/12/05 04:19:48;;;;;;;0.50;0.50;;;6.70;99.90;;;;;;5074554;28;20218;-78
2020/12/05 04:22:13;;;;;;;0.80;0.80;;;6.80;99.90;;;;;;5074497;28;20247;-78
2020/12/05 04:24:39;;;;;;;1.07;0.97;;;6.80;99.90;;;;;;5056711;28;20254;-78
2020/12/05 04:27:04;;;;;;;0.53;0.53;;;6.80;99.90;;;;;;5056665;28;20641;-78
2020/12/05 04:29:30;;;;;;;1.53;1.27;;;6.80;99.90;;;;;;5074630;28;20186;-78
2020/12/05 04:31:55;;;;;;;0.63;0.63;;;6.80;99.90;;;;;;5074328;28;20220;-78
2020/12/05 04:34:21;;;;;;;1.53;1.43;;;6.80;99.90;;;;;;5074150;28;20225;-78
2020/12/05 04:36:47;;;;;;;1.20;1.20;;;6.70;99.90;;;;;;5056453;28;20255;-78
2020/12/05 04:39:14;;;;;;;1.83;1.43;;;6.70;99.90;;;;;;5056218;28;20200;-78
2020/12/05 04:41:42;;;;;;;0.40;0.40;;;6.60;99.90;;;;;;5074323;28;20175;-78
2020/12/05 04:44:11;;;;;;;0.47;0.47;;;6.50;99.90;;;;;;5074160;28;20181;-78
2020/12/05 04:46:36;;;;;;;0.53;0.53;;;6.60;99.90;;;;;;5074155;28;20194;-78
2020/12/05 04:49:04;;;;;;;0.67;0.63;;;6.60;99.90;;;;;;5073924;28;20196;-78
2020/12/05 04:51:38;;;;;;;2.00;1.27;;;6.60;99.90;;;;;;5074090;28;20276;-78
2020/12/05 04:54:05;;;;;;;0.90;0.90;;;6.60;99.90;;;;;;5073845;28;20195;-78
2020/12/05 04:56:35;;;;;;;0.53;0.53;;;6.60;99.90;;;;;;5056153;28;20174;-78
2020/12/05 04:59:03;;;;;;;1.03;1.03;;;6.70;99.90;;;;;;5055884;28;20207;-79
2020/12/05 05:01:34;;;;;;;0.23;0.23;;;6.70;99.90;;;;;;5073979;28;20176;-78
2020/12/05 05:04:01;;;;;;;0.43;0.43;;;6.80;99.90;;;;;;5056179;28;20514;-78
2020/12/05 05:06:27;;;;;;;0.93;0.93;;;6.80;99.90;;;;;;5073829;28;20178;-78
2020/12/05 05:08:52;;;;;;;1.50;1.30;;;6.90;99.90;;;;;;5055665;28;20188;-78
2020/12/05 05:11:19;;;;;;;2.43;1.53;;;6.90;99.90;;;;;;5073971;28;20249;-78
2020/12/05 05:14:01;;;;;;;1.00;1.00;;;6.90;99.90;;;;;;5055714;28;20201;-78
2020/12/05 05:16:28;;;;;;;0.20;0.20;;;6.90;99.90;;;;;;5073797;28;20147;-78
2020/12/05 05:18:55;;;;;;;0.67;0.27;;;7.00;99.90;;;;;;5073676;28;20186;-78
2020/12/05 05:21:40;;;;;;;1.00;0.93;;;7.00;99.90;;;;;;5074200;28;20179;-78
2020/12/05 05:24:24;;;;;;;1.20;1.17;;;7.00;99.90;;;;;;5054848;28;20570;-78
2020/12/05 05:27:04;;;;;;;1.00;1.00;;;7.00;99.90;;;;;;5055629;28;20177;-78
2020/12/05 05:29:34;;;;;;;1.87;1.77;;;6.90;99.90;;;;;;5073548;28;20191;-78
2020/12/05 05:32:22;;;;;;;0.70;0.70;;;6.90;99.90;;;;;;5055615;28;20547;-78
2020/12/05 05:34:47;;;;;;;0.97;0.97;;;6.90;99.90;;;;;;5073613;28;20696;-78
2020/12/05 05:37:14;;;;;;;0.60;0.60;;;6.70;99.90;;;;;;5073663;28;20168;-78
2020/12/05 05:39:52;;;;;;;1.23;1.13;;;6.50;99.90;;;;;;5073591;28;20262;-78
2020/12/05 05:42:32;;;;;;;0.50;0.50;;;6.50;99.90;;;;;;5073378;28;20150;-78
2020/12/05 05:45:20;;;;;;;1.20;0.93;;;6.50;99.90;;;;;;5055352;28;20195;-78
2020/12/05 05:47:46;;;;;;;1.57;1.50;;;6.60;99.90;;;;;;5073321;28;20166;-78
2020/12/05 05:50:30;;;;;;;0.50;0.47;;;6.60;99.90;;;;;;5055309;28;20176;-78
2020/12/05 05:52:58;;;;;;;1.57;1.47;;;6.60;99.90;;;;;;5073407;28;20180;-78
2020/12/05 05:55:44;;;;;;;1.40;1.07;;;6.70;99.90;;;;;;5055136;28;20197;-78
2020/12/05 05:58:11;;;;;;;1.47;1.13;;;6.70;99.90;;;;;;5054691;28;20207;-78
2020/12/05 06:00:47;;;;;;;0.70;0.70;;;6.70;99.90;;;;;;5073651;28;20607;-78
2020/12/05 06:03:25;;;;;;;0.83;0.60;;;6.70;99.90;;;;;;5073506;28;20152;-78
2020/12/05 06:05:52;;;;;;;1.07;0.73;;;6.70;99.90;;;;;;5073146;28;20157;-78
2020/12/05 06:08:21;;;;;;;2.83;1.33;;;6.60;99.90;;;;;;5055017;28;20683;-78
2020/12/05 06:10:58;;;;;;;1.80;1.40;;;6.50;99.90;;;;;;5055122;28;20171;-78
2020/12/05 06:13:32;;;;;;;0.97;0.97;;;6.50;99.90;;;;;;5055206;28;20161;-78
2020/12/05 06:15:59;;;;;;;0.87;0.87;;;6.50;99.90;;;;;;5055259;28;20522;-78
2020/12/05 06:18:25;;;;;;;0.87;0.87;;;6.50;99.90;;;;;;5073062;28;20183;-78
2020/12/05 06:20:51;;;;;;;0.53;0.53;;;6.50;99.90;;;;;;5055047;28;20163;-78
2020/12/05 06:23:26;;;;;;;0.87;0.83;;;6.60;99.90;;;;;;5073220;28;20218;-78
2020/12/05 06:25:53;;;;;;;0.83;0.83;;;6.60;99.90;;;;;;5055112;28;20530;-78
2020/12/05 06:28:21;;;;;;;1.07;1.07;;;6.50;99.90;;;;;;5054907;28;20673;-78
2020/12/05 06:30:47;;;;;;;0.80;0.80;;;6.60;99.90;;;;;;5073050;28;20174;-78
2020/12/05 06:33:44;;;;;;;0.60;0.60;;;6.50;99.90;;;;;;5055127;28;20522;-78
2020/12/05 06:36:28;;;;;;;1.63;1.53;;;6.50;99.90;;;;;;5074809;28;20242;-78
2020/12/05 06:39:06;;;;;;;1.33;1.27;;;6.60;99.90;;;;;;5076761;28;20702;-78
2020/12/05 06:41:39;;;;;;;1.93;1.83;;;6.50;99.90;;;;;;5058646;28;20258;-78
2020/12/05 06:44:15;;;;;;;1.37;1.27;;;6.50;99.90;;;;;;5058450;28;20172;-78
2020/12/05 06:46:47;;;;;;;3.03;1.03;;;6.50;99.90;;;;;;5058505;28;20224;-78
2020/12/05 06:49:35;;;;;;;2.17;1.23;;;6.50;99.90;;;;;;5076309;28;20187;-78
2020/12/05 06:52:25;;;;;;;2.67;1.00;;;6.50;99.90;;;;;;5058563;28;20178;-78
2020/12/05 06:54:59;;;;;;;1.10;1.10;;;6.50;99.90;;;;;;5076104;28;20226;-78
2020/12/05 06:57:29;;;;;;;2.43;1.50;;;6.60;99.90;;;;;;5076391;28;20627;-79
2020/12/05 07:00:13;;;;;;;2.20;2.00;;;6.60;99.90;;;;;;5075980;28;20671;-79
2020/12/05 07:02:39;;;;;;;0.83;0.80;;;6.60;99.90;;;;;;5076078;28;20163;-79
2020/12/05 07:05:16;;;;;;;0.20;0.20;;;6.60;99.90;;;;;;5076261;28;20247;-79
2020/12/05 07:07:42;;;;;;;1.07;1.07;;;6.50;99.90;;;;;;5076222;28;20600;-79
2020/12/05 07:10:08;;;;;;;0.80;0.70;;;6.50;99.90;;;;;;5057876;28;20192;-79
2020/12/05 07:12:38;;;;;;;1.70;1.60;;;6.40;99.90;;;;;;5075848;28;20249;-79
2020/12/05 07:15:27;;;;;;;2.50;1.73;;;6.40;99.90;;;;;;5075625;28;20188;-79
2020/12/05 07:17:54;;;;;;;1.17;1.17;;;6.40;99.90;;;;;;5075680;28;20154;-79
2020/12/05 07:20:20;;;;;;;1.37;1.27;;;6.50;99.90;;;;;;5075724;28;20167;-79
2020/12/05 07:22:49;;;;;;;1.40;1.33;;;6.50;99.90;;;;;;5075667;28;20192;-79
2020/12/05 07:25:15;;;;;;;0.47;0.40;;;6.50;99.90;;;;;;5075890;28;20164;-79
2020/12/05 07:27:42;;;;;;;1.67;1.37;;;6.50;99.90;;;;;;5075876;28;20171;-79
2020/12/05 07:30:08;;;;;;;2.27;2.13;;;6.60;99.90;;;;;;5075409;28;20187;-79
2020/12/05 07:32:35;;;;;;;1.30;1.30;;;6.60;99.90;;;;;;5075541;28;20180;-79
2020/12/05 07:35:10;;;;;;;1.33;0.83;;;6.60;99.90;;;;;;5075372;28;20196;-79
2020/12/05 07:37:36;;;;;;;1.57;1.47;;;6.60;99.90;;;;;;5057370;28;20175;-78
2020/12/05 07:40:03;;;;;;;2.53;1.50;;;6.60;99.90;;;;;;5075256;28;20184;-79
2020/12/05 07:42:37;;;;;;;1.60;1.50;;;6.60;99.90;;;;;;5057255;28;20225;-79
2020/12/05 07:45:12;;;;;;;0.83;0.83;;;6.60;99.90;;;;;;5075188;28;20249;-79
2020/12/05 07:47:40;;;;;;;2.30;2.20;;;6.60;99.90;;;;;;5056238;28;20171;-79
2020/12/05 07:50:07;;;;;;;0.60;0.60;;;6.60;99.90;;;;;;5075001;28;20187;-79
2020/12/05 07:52:33;;;;;;;3.47;3.07;;;6.60;99.90;;;;;;5075291;28;20696;-79
2020/12/05 07:55:03;;;;;;;0.87;0.87;;;6.60;99.90;;;;;;5075812;28;20189;-79
2020/12/05 07:57:31;;;;;;;1.47;1.37;;;6.60;99.90;;;;;;5075782;28;20255;-78
2020/12/05 08:00:13;;;;;;;0.87;0.87;;;6.60;99.90;;;;;;5056942;28;20260;-78
2020/12/05 08:02:46;;;;;;;0.43;0.43;;;6.50;99.90;;;;;;5057403;28;20163;-78
2020/12/05 08:05:36;;;;;;;2.60;2.40;;;6.60;99.90;;;;;;5057605;28;20169;-80
2020/12/05 08:08:05;;;;;;;1.30;1.20;;;6.60;99.90;;;;;;5057056;28;20276;-78
2020/12/05 08:10:33;;;;;;;0.70;0.70;;;6.60;99.90;;;;;;5075243;28;20173;-78
2020/12/05 08:13:28;;;;;;;2.40;2.03;;;6.60;99.90;;;;;;5076065;28;20628;-80
2020/12/05 08:16:05;;;;;;;1.97;1.87;;;6.60;99.90;;;;;;5075640;28;20682;-79
2020/12/05 08:18:32;;;;;;;1.70;1.50;;;6.60;99.90;;;;;;5076527;28;20183;-79
2020/12/05 08:21:00;;;;;;;1.80;1.67;;;6.50;99.90;;;;;;5075485;28;20179;-79
2020/12/05 08:23:27;;;;;;;1.83;1.73;;;6.50;99.90;;;;;;5075468;28;20167;-79
2020/12/05 08:25:56;;;;;;;1.50;1.50;;;6.50;99.90;;;;;;5057066;28;20639;-79
2020/12/05 08:28:23;;;;;;;0.53;0.53;;;6.40;99.90;;;;;;5057043;28;20191;-78
2020/12/05 08:30:50;;;;;;;1.90;1.57;;;6.50;99.90;;;;;;5057609;28;20262;-78
2020/12/05 08:33:16;;;;;;;1.67;1.60;;;6.50;99.90;;;;;;5056913;28;20209;-79
2020/12/05 08:35:42;;;;;;;1.67;1.10;;;6.60;99.90;;;;;;5056669;28;20163;-79
2020/12/05 08:38:15;;;;;;;2.57;1.17;;;6.60;99.90;;;;;;5074948;28;20208;-79
2020/12/05 08:40:41;;;;;;;1.93;1.83;;;6.70;99.90;;;;;;5057307;28;20179;-78
2020/12/05 08:43:08;;;;;;;1.83;1.40;;;6.70;99.90;;;;;;5076347;28;20175;-78
2020/12/05 08:45:38;;;;;;;1.47;1.10;;;6.70;99.90;;;;;;5059213;28;20170;-79
2020/12/05 08:48:17;;;;;;;1.53;1.43;;;6.70;99.90;;;;;;5074817;28;20238;-80
2020/12/05 08:50:44;;;;;;;0.77;0.77;;;6.70;99.90;;;;;;5056310;28;20170;-79
2020/12/05 08:53:11;;;;;;;1.60;1.50;;;6.70;99.90;;;;;;5057414;28;20171;-80
2020/12/05 08:55:37;;;;;;;0.77;0.77;;;6.70;99.90;;;;;;5055858;28;20211;-79
2020/12/05 08:58:05;;;;;;;1.70;1.60;;;6.70;99.90;;;;;;5055518;28;20166;-79
2020/12/05 09:00:35;;;;;;;2.90;1.90;;;6.70;99.90;;;;;;5055955;28;20165;-78
2020/12/05 09:03:04;;;;;;;3.93;1.50;;;6.80;99.90;;;;;;5055996;28;20216;-77
2020/12/05 09:05:30;;;;;;;2.03;1.93;;;6.90;99.90;;;;;;5055786;28;20178;-78
2020/12/05 09:07:58;;;;;;;2.37;1.73;;;6.90;99.90;;;;;;5055867;28;20168;-78
2020/12/05 09:10:24;;;;;;;2.50;2.40;;;7.00;99.90;;;;;;5073884;28;20178;-79
2020/12/05 09:12:50;;;;;;;3.70;2.27;;;7.00;99.90;;;;;;5073938;28;20189;-78
2020/12/05 09:15:16;;;;;;;2.37;1.40;;;7.00;99.90;;;;;;5057360;28;20191;-78
2020/12/05 09:17:42;;;;;;;1.43;1.13;;;7.00;99.90;;;;;;5074520;28;20206;-78
2020/12/05 09:20:15;;;;;;;0.83;0.83;;;7.10;99.90;;;;;;5073467;28;20572;-79
2020/12/05 09:22:57;;;;;;;1.60;1.57;;;7.10;99.90;;;;;;5073824;28;20170;-79
2020/12/05 09:25:32;;;;;;;1.97;1.60;;;7.10;99.90;;;;;;5055941;28;20166;-78
2020/12/05 09:27:59;;;;;;;1.27;1.17;;;7.20;99.90;;;;;;5056192;28;20165;-78
2020/12/05 09:30:27;;;;;;;0.90;0.90;;;7.20;99.90;;;;;;5073624;28;20658;-79
2020/12/05 09:32:53;;;;;;;1.90;0.97;;;7.20;99.90;;;;;;5055936;28;20175;-77
2020/12/05 09:35:21;;;;;;;1.20;1.20;;;7.20;99.90;;;;;;5073719;28;20251;-78
2020/12/05 09:37:47;;;;;;;1.90;1.73;;;7.20;99.90;;;;;;5056200;28;20176;-78
2020/12/05 09:40:15;;;;;;;0.90;0.90;;;7.30;99.90;;;;;;5073894;28;20526;-77
2020/12/05 09:42:42;;;;;;;1.77;1.73;;;7.30;99.90;;;;;;5073838;28;20182;-77
2020/12/05 09:45:09;;;;;;;1.47;1.37;;;7.30;99.90;;;;;;5055782;28;20173;-79
2020/12/05 09:47:34;;;;;;;0.27;0.27;;;7.30;99.90;;;;;;5073336;28;20638;-81
2020/12/05 09:50:01;;;;;;;1.17;0.97;;;7.40;99.90;;;;;;5055266;28;20252;-78
2020/12/05 09:52:26;;;;;;;2.03;1.67;;;7.50;99.90;;;;;;5055436;28;20173;-80
2020/12/05 09:54:52;;;;;;;1.10;0.93;;;7.50;99.90;;;;;;5055700;28;20221;-78
2020/12/05 09:57:19;;;;;;;1.47;1.30;;;7.60;99.90;;;;;;5055842;28;20528;-79
2020/12/05 09:59:46;;;;;;;1.70;1.60;;;7.50;99.90;;;;;;5055353;28;20200;-78
2020/12/05 10:02:12;;;;;;;1.43;1.37;;;7.60;99.90;;;;;;5073876;28;20164;-80
2020/12/05 10:04:38;;;;;;;1.17;0.80;;;7.50;99.90;;;;;;5073762;28;20259;-78
2020/12/05 10:07:04;;;;;;;0.40;0.40;;;7.60;99.90;;;;;;5073671;28;20691;-79
2020/12/05 10:09:29;;;;;;;0.53;0.53;;;7.60;99.90;;;;;;5073625;28;20214;-79
2020/12/05 10:11:55;;;;;;;0.93;0.93;;;7.60;99.90;;;;;;5076973;28;20658;-78
2020/12/05 10:14:20;;;;;;;0.27;0.27;;;7.70;99.90;;;;;;5059434;28;20223;-81
2020/12/05 10:16:46;;;;;;;0.97;0.83;;;7.70;99.90;;;;;;5059314;28;20188;-80
2020/12/05 10:19:12;;;;;;;2.83;1.20;;;7.70;99.90;;;;;;5077884;28;20205;-80
2020/12/05 10:21:37;;;;;;;0.80;0.80;;;7.70;99.90;;;;;;5060194;28;20176;-80
2020/12/05 10:24:04;;;;;;;0.53;0.33;;;7.70;99.90;;;;;;5078607;28;20166;-80
2020/12/05 10:26:29;;;;;;;1.00;0.87;;;7.80;99.90;;;;;;5059830;28;20169;-79
2020/12/05 10:28:55;;;;;;;0.70;0.70;;;7.80;99.90;;;;;;5077252;28;20238;-80
2020/12/05 10:31:21;;;;;;;0.30;0.30;;;7.80;99.90;;;;;;5077233;28;20282;-80
2020/12/05 10:33:46;;;;;;;0.53;0.53;;;7.90;99.90;;;;;;5058849;28;20203;-82
2020/12/05 10:36:12;;;;;;;0.30;0.20;;;7.90;99.90;;;;;;5058901;28;20195;-78
2020/12/05 10:38:37;;;;;;;0.30;0.30;;;7.90;99.90;;;;;;5059359;28;20218;-80
2020/12/05 10:41:03;;;;;;;0.13;0.13;;;7.80;99.90;;;;;;5058944;28;20168;-80
2020/12/05 10:43:29;;;;;;;0.10;0.10;;;7.90;99.90;;;;;;5058582;28;20531;-78
2020/12/05 10:45:54;;;;;;;0.60;0.60;;;7.90;99.90;;;;;;5058918;28;20171;-79
2020/12/05 10:48:20;;;;;;;0.30;0.27;;;7.90;99.90;;;;;;5076449;28;20190;-78
2020/12/05 10:50:45;;;;;;;0.20;0.20;;;7.90;99.90;;;;;;5058627;28;20324;-79
2020/12/05 10:53:11;;;;;;;0.30;0.30;;;8.00;99.90;;;;;;5076142;28;20168;-79
2020/12/05 10:55:36;;;;;;;0.40;0.40;;;8.00;99.90;;;;;;5058188;28;20210;-79
2020/12/05 10:58:02;;;;;;;0.30;0.23;;;8.00;99.90;;;;;;5057993;28;20174;-79
2020/12/05 11:00:27;;;;;;;0.70;0.70;;;8.00;99.90;;;;;;5076384;28;20617;-79
2020/12/05 11:02:53;;;;;;;0.10;0.10;;;8.10;99.90;;;;;;5076037;28;20166;-79
2020/12/05 11:05:18;;;;;;;0.20;0.20;;;8.20;99.90;;;;;;5076121;28;20181;-79
2020/12/05 11:07:44;;;;;;;0.20;0.20;;;8.20;99.90;;;;;;5076025;28;20228;-78
2020/12/05 11:10:10;;;;;;;0.00;0.00;;;8.30;99.90;;;;;;5075893;28;20183;-78
2020/12/05 11:12:35;;;;;;;0.43;0.20;;;8.30;99.90;;;;;;5075879;28;20202;-79
2020/12/05 11:15:01;;;;;;;0.00;0.00;;;8.40;99.90;;;;;;5057836;28;20598;-78
2020/12/05 11:17:26;;;;;;;0.03;0.03;;;8.50;99.90;;;;;;5075965;28;20169;-78
2020/12/05 11:19:52;;;;;;;0.03;0.00;;;8.50;99.90;;;;;;5057699;28;20603;-78
2020/12/05 11:22:17;;;;;;;0.10;0.10;;;8.50;99.90;;;;;;5075884;28;20163;-78
2020/12/05 11:24:43;;;;;;;0.13;0.13;;;8.50;99.90;;;;;;5057718;28;20209;-78
2020/12/05 11:27:08;;;;;;;0.10;0.10;;;8.40;99.90;;;;;;5075535;28;20261;-79
2020/12/05 11:29:34;;;;;;;0.70;0.27;;;8.40;99.90;;;;;;5075570;28;20272;-79
2020/12/05 11:31:59;;;;;;;0.00;0.00;;;8.30;99.90;;;;;;5058481;28;20370;-79
2020/12/05 11:34:25;;;;;;;0.27;0.27;;;8.30;99.90;;;;;;5075306;28;20191;-78
2020/12/05 11:36:50;;;;;;;0.30;0.30;;;8.20;99.90;;;;;;5075448;28;20170;-78
2020/12/05 11:39:16;;;;;;;0.13;0.13;;;8.20;99.90;;;;;;5057418;28;20189;-78
2020/12/05 11:41:42;;;;;;;0.23;0.20;;;8.20;99.90;;;;;;5057377;28;20177;-78
2020/12/05 11:44:07;;;;;;;1.60;0.30;;;8.10;99.90;;;;;;5075248;28;20555;-79
2020/12/05 11:46:33;;;;;;;0.43;0.43;;;8.10;99.90;;;;;;5057257;28;20179;-78
2020/12/05 11:48:59;;;;;;;1.43;0.60;;;8.10;99.90;;;;;;5075265;28;20186;-78
2020/12/05 11:51:25;;;;;;;0.17;0.17;;;8.10;99.90;;;;;;5075122;28;20535;-79
2020/12/05 11:53:51;;;;;;;0.57;0.53;;;8.20;99.90;;;;;;5057101;28;20197;-80
2020/12/05 11:56:17;;;;;;;0.20;0.20;;;8.40;99.90;;;;;;5075077;28;20166;-80
2020/12/05 11:58:42;;;;;;;0.00;0.00;;;8.50;99.90;;;;;;5056896;28;20205;-81
2020/12/05 12:01:08;;;;;;;0.40;0.40;;;8.50;99.90;;;;;;5074931;28;20170;-81
2020/12/05 12:03:34;;;;;;;0.10;0.10;;;8.60;99.90;;;;;;5074904;28;20170;-80
2020/12/05 12:06:00;;;;;;;0.20;0.20;;;8.70;99.90;;;;;;5074869;28;20631;-80
2020/12/05 12:08:25;;;;;;;0.27;0.27;;;8.80;99.90;;;;;;5056779;28;20198;-80
2020/12/05 12:10:51;;;;;;;0.17;0.17;;;8.80;99.90;;;;;;5074702;28;20630;-81
2020/12/05 12:13:17;;;;;;;0.00;0.00;;;8.70;99.90;;;;;;5056874;28;20221;-81
2020/12/05 12:15:42;;;;;;;0.63;0.63;;;8.70;99.90;;;;;;5056749;28;20193;-80
2020/12/05 12:18:08;;;;;;;0.20;0.20;;;8.60;99.90;;;;;;5056636;28;20547;-78
2020/12/05 12:20:34;;;;;;;1.40;0.30;;;8.50;99.90;;;;;;5056696;28;20176;-78
2020/12/05 12:22:59;;;;;;;0.00;0.00;;;8.40;99.90;;;;;;5074570;28;20189;-78
2020/12/05 12:25:25;;;;;;;0.13;0.13;;;8.30;99.90;;;;;;5074546;28;20169;-78
2020/12/05 12:27:50;;;;;;;0.37;0.37;;;8.30;99.90;;;;;;5074304;28;20169;-79
2020/12/05 12:30:16;;;;;;;0.07;0.07;;;8.30;99.90;;;;;;5056404;28;20170;-78
2020/12/05 12:32:41;;;;;;;5.30;0.30;;;8.40;99.90;;;;;;5074128;28;20251;-79
2020/12/05 12:35:07;;;;;;;0.17;0.03;;;8.40;99.90;;;;;;5073876;28;20236;-79
2020/12/05 12:37:32;;;;;;;0.33;0.33;;;8.40;99.90;;;;;;5056392;28;20169;-78
2020/12/05 12:39:58;;;;;;;0.30;0.30;;;8.40;99.90;;;;;;5074073;28;20334;-78
2020/12/05 12:42:28;;;;;;;0.30;0.30;;;8.40;99.90;;;;;;5074118;28;20161;-78
2020/12/05 12:44:54;;;;;;;0.10;0.10;;;8.40;99.90;;;;;;5056252;28;20707;-78
2020/12/05 12:49:58;;;;;;;0.00;0.00;;;8.60;99.90;;;;;;5074232;28;20653;-79
2020/12/05 12:52:24;;;;;;;0.03;0.03;;;8.60;99.90;;;;;;5056185;28;20281;-79
2020/12/05 12:54:49;;;;;;;0.10;0.10;;;8.70;99.90;;;;;;5073824;28;20621;-79
2020/12/05 12:57:15;;;;;;;1.47;0.27;;;8.70;99.90;;;;;;5073962;28;20238;-79
2020/12/05 12:59:41;;;;;;;0.00;0.00;;;8.60;99.90;;;;;;5073767;28;20290;-78
2020/12/05 13:02:06;;;;;;;0.80;0.80;;;8.60;99.90;;;;;;5073781;28;20201;-78
2020/12/05 13:04:32;;;;;;;0.00;0.00;;;8.60;99.90;;;;;;5073995;28;20192;-79